Time;durP1;ratioP1;P1;durP2;ratioP2;P2;SDS_P1;SDS_P2;PMS_P1;PMS_P2;Temp;Humidity;BMP_temperature;BMP_pressure;BME280_temperature;BME280_humidity;BME280_pressure;Samples;Min_cycle;Max_cycle;Signal;HPM_P1;HPM_P2
2023/06/23 00:01:09;;;;;;;35.13;19.67;;;16.50;99.90;;;;;;5086530;28;20222;-59
2023/06/23 00:03:38;;;;;;;33.07;20.57;;;16.40;99.90;;;;;;5089595;28;20280;-59
2023/06/23 00:06:07;;;;;;;35.07;20.27;;;16.40;99.90;;;;;;5091811;28;20664;-59
2023/06/23 00:08:38;;;;;;;39.10;19.67;;;16.40;99.90;;;;;;5093375;28;20230;-59
2023/06/23 00:11:06;;;;;;;35.37;21.13;;;16.30;99.90;;;;;;5092681;28;20223;-59
2023/06/23 00:13:36;;;;;;;34.40;22.13;;;16.40;99.90;;;;;;5085018;28;20723;-59
2023/06/23 00:16:05;;;;;;;36.27;21.33;;;16.30;99.90;;;;;;5094167;28;20591;-59
2023/06/23 00:18:36;;;;;;;37.13;20.50;;;16.30;99.90;;;;;;5093943;28;20223;-59
2023/06/23 00:21:07;;;;;;;35.20;20.73;;;16.30;99.90;;;;;;5094278;28;20196;-59
2023/06/23 00:23:36;;;;;;;35.30;20.87;;;16.30;99.90;;;;;;5093880;28;20226;-59
2023/06/23 00:26:07;;;;;;;30.13;20.80;;;16.30;99.90;;;;;;5093213;28;20619;-59
2023/06/23 00:28:36;;;;;;;35.20;21.70;;;16.20;99.90;;;;;;5075864;28;20330;-60
2023/06/23 00:31:05;;;;;;;33.17;21.43;;;16.20;99.90;;;;;;5090800;28;20569;-59
2023/06/23 00:33:35;;;;;;;35.17;21.97;;;16.20;99.90;;;;;;5092537;28;20234;-59
2023/06/23 00:36:04;;;;;;;35.03;21.87;;;16.10;99.90;;;;;;5085972;28;20192;-59
2023/06/23 00:38:33;;;;;;;33.63;21.23;;;16.20;99.90;;;;;;5089319;28;20220;-60
2023/06/23 00:41:02;;;;;;;40.27;21.27;;;16.10;99.90;;;;;;5089704;28;20282;-59
2023/06/23 00:43:31;;;;;;;34.13;20.57;;;16.10;99.90;;;;;;5087819;28;20667;-59
2023/06/23 00:46:07;;;;;;;30.63;20.63;;;16.10;99.90;;;;;;5084347;28;20252;-59
2023/06/23 00:48:38;;;;;;;33.43;21.53;;;16.10;99.90;;;;;;5093125;28;20217;-59
2023/06/23 00:51:07;;;;;;;33.10;21.07;;;16.10;99.90;;;;;;5093776;28;20228;-59
2023/06/23 00:53:36;;;;;;;36.33;21.93;;;16.00;99.90;;;;;;5092211;28;20236;-59
2023/06/23 00:56:05;;;;;;;33.70;21.47;;;16.00;99.90;;;;;;5088014;28;20217;-60
2023/06/23 00:58:36;;;;;;;38.50;22.20;;;16.00;99.90;;;;;;5092221;28;20215;-59
2023/06/23 01:01:05;;;;;;;35.37;22.03;;;16.00;99.90;;;;;;5090771;28;20226;-60
2023/06/23 01:03:36;;;;;;;35.83;21.97;;;16.00;99.90;;;;;;5088248;28;20225;-59
2023/06/23 01:06:11;;;;;;;33.63;21.27;;;15.90;99.90;;;;;;5090550;28;20227;-59
2023/06/23 01:08:45;;;;;;;34.20;22.73;;;15.90;99.90;;;;;;5093076;28;20257;-59
2023/06/23 01:11:21;;;;;;;33.17;22.17;;;15.90;99.90;;;;;;5092472;28;20219;-59
2023/06/23 01:13:55;;;;;;;37.80;23.27;;;15.90;99.90;;;;;;5087410;28;20787;-59
2023/06/23 01:16:30;;;;;;;40.23;23.67;;;15.90;99.90;;;;;;5086526;28;20269;-59
2023/06/23 01:19:09;;;;;;;38.77;24.10;;;15.90;99.90;;;;;;5079720;28;20244;-59
2023/06/23 01:21:52;;;;;;;42.23;23.67;;;15.80;99.90;;;;;;5089862;28;20239;-59
2023/06/23 01:24:39;;;;;;;31.93;21.87;;;15.80;99.90;;;;;;5089896;28;20282;-59
2023/06/23 01:27:34;;;;;;;36.13;23.37;;;15.80;99.90;;;;;;5089998;28;20193;-59
2023/06/23 01:30:08;;;;;;;41.87;23.07;;;15.80;99.90;;;;;;5088674;28;20216;-59
2023/06/23 01:32:41;;;;;;;38.70;23.70;;;15.80;99.90;;;;;;5089912;28;20219;-59
2023/06/23 01:35:18;;;;;;;41.10;23.87;;;15.80;99.90;;;;;;5083174;28;20706;-60
2023/06/23 01:37:51;;;;;;;37.90;23.37;;;15.70;99.90;;;;;;5092025;28;20225;-59
2023/06/23 01:40:22;;;;;;;40.90;24.47;;;15.70;99.90;;;;;;5089771;28;20579;-60
2023/06/23 01:42:54;;;;;;;42.70;25.80;;;15.60;99.90;;;;;;5091946;28;20216;-60
2023/06/23 01:45:27;;;;;;;40.83;24.50;;;15.70;99.90;;;;;;5091037;28;20203;-60
2023/06/23 01:48:00;;;;;;;37.57;22.80;;;15.60;99.90;;;;;;5091450;28;20238;-59
2023/06/23 01:50:31;;;;;;;43.30;25.53;;;15.60;99.90;;;;;;5089536;28;20214;-59
2023/06/23 01:53:02;;;;;;;40.90;25.30;;;15.60;99.90;;;;;;5091552;28;20267;-59
2023/06/23 01:55:32;;;;;;;40.03;24.37;;;15.60;99.90;;;;;;5088438;28;20252;-59
2023/06/23 01:58:02;;;;;;;41.20;25.50;;;15.50;99.90;;;;;;5092367;28;20290;-60
2023/06/23 02:00:33;;;;;;;39.30;24.00;;;15.50;99.90;;;;;;5085924;28;20255;-60
2023/06/23 02:03:04;;;;;;;36.97;24.10;;;15.50;99.90;;;;;;5091736;28;20190;-59
2023/06/23 02:05:36;;;;;;;44.20;25.70;;;15.40;99.90;;;;;;5087528;28;20232;-60
2023/06/23 02:08:05;;;;;;;44.13;27.07;;;15.40;99.90;;;;;;5066433;28;20218;-59
2023/06/23 02:10:34;;;;;;;40.93;24.30;;;15.40;99.90;;;;;;5071773;28;20232;-59
2023/06/23 02:13:03;;;;;;;39.07;25.53;;;15.40;99.90;;;;;;5086624;28;20216;-59
2023/06/23 02:15:34;;;;;;;43.37;26.50;;;15.30;99.90;;;;;;5084175;28;20238;-60
2023/06/23 02:18:03;;;;;;;39.17;25.07;;;15.30;99.90;;;;;;5081989;28;20243;-59
2023/06/23 02:20:33;;;;;;;42.97;25.70;;;15.30;99.90;;;;;;5082973;28;20232;-60
2023/06/23 02:23:02;;;;;;;41.67;25.93;;;15.30;99.90;;;;;;5090926;28;20217;-59
2023/06/23 02:25:32;;;;;;;44.43;26.93;;;15.30;99.90;;;;;;5091758;28;20217;-59
2023/06/23 02:28:02;;;;;;;46.53;26.73;;;15.30;99.90;;;;;;5083329;28;20313;-60
2023/06/23 02:30:32;;;;;;;42.17;25.97;;;15.20;99.90;;;;;;5090432;28;20208;-60
2023/06/23 02:33:01;;;;;;;46.43;27.27;;;15.20;99.90;;;;;;5089490;28;20205;-60
2023/06/23 02:35:30;;;;;;;42.60;25.57;;;15.20;99.90;;;;;;5087505;28;20251;-59
2023/06/23 02:38:02;;;;;;;40.67;25.10;;;15.20;99.90;;;;;;5089741;28;20221;-59
2023/06/23 02:40:34;;;;;;;41.33;24.67;;;15.20;99.90;;;;;;5091405;28;20226;-60
2023/06/23 02:43:09;;;;;;;40.83;25.53;;;15.10;99.90;;;;;;5091566;28;20220;-59
2023/06/23 02:45:42;;;;;;;37.37;23.87;;;15.10;99.90;;;;;;5082509;28;20713;-59
2023/06/23 02:48:16;;;;;;;43.63;27.50;;;15.00;99.90;;;;;;5088784;28;20716;-59
2023/06/23 02:50:46;;;;;;;44.13;26.80;;;15.00;99.90;;;;;;5085176;28;20336;-59
2023/06/23 02:53:19;;;;;;;45.60;27.00;;;15.00;99.90;;;;;;5091087;28;20232;-59
2023/06/23 02:55:50;;;;;;;40.50;25.67;;;14.90;99.90;;;;;;5090795;28;20222;-59
2023/06/23 02:58:19;;;;;;;48.60;28.37;;;14.90;99.90;;;;;;5088524;28;20684;-60
2023/06/23 03:00:52;;;;;;;45.77;27.77;;;14.90;99.90;;;;;;5089881;28;20227;-59
2023/06/23 03:03:20;;;;;;;49.40;28.63;;;14.90;99.90;;;;;;5089043;28;20184;-60
2023/06/23 03:05:50;;;;;;;58.10;31.50;;;14.80;99.90;;;;;;5088668;28;20245;-59
2023/06/23 03:08:18;;;;;;;58.47;33.00;;;14.80;99.90;;;;;;5083265;28;20211;-59
2023/06/23 03:10:47;;;;;;;64.00;36.47;;;14.80;99.90;;;;;;5089830;28;20231;-59
2023/06/23 03:13:15;;;;;;;64.40;35.13;;;14.80;99.90;;;;;;5086345;28;20225;-60
2023/06/23 03:15:44;;;;;;;69.93;35.90;;;14.90;99.90;;;;;;5087158;28;20307;-59
2023/06/23 03:18:18;;;;;;;76.67;38.80;;;14.90;99.90;;;;;;5089026;28;20204;-59
2023/06/23 03:20:49;;;;;;;67.10;37.37;;;14.90;99.90;;;;;;5089057;28;20203;-60
2023/06/23 03:23:19;;;;;;;74.47;41.27;;;14.90;99.90;;;;;;5090624;28;20216;-59
2023/06/23 03:25:49;;;;;;;84.03;44.13;;;14.90;99.90;;;;;;5090810;28;20569;-59
2023/06/23 03:28:21;;;;;;;87.80;46.37;;;14.90;99.90;;;;;;5091450;28;20615;-59
2023/06/23 03:30:54;;;;;;;93.53;49.20;;;14.90;99.90;;;;;;5084862;28;20832;-59
2023/06/23 03:33:28;;;;;;;104.10;52.00;;;15.00;99.90;;;;;;5087836;28;20527;-59
2023/06/23 03:36:01;;;;;;;103.60;51.60;;;15.00;99.90;;;;;;5092310;28;20288;-59
2023/06/23 03:38:34;;;;;;;105.53;52.23;;;15.00;99.90;;;;;;5087664;28;20610;-60
2023/06/23 03:41:07;;;;;;;109.07;54.87;;;15.00;99.90;;;;;;5090940;28;20639;-59
2023/06/23 03:43:38;;;;;;;107.87;51.47;;;15.10;99.90;;;;;;5091586;28;20787;-60
2023/06/23 03:46:14;;;;;;;105.33;53.50;;;15.10;99.90;;;;;;5091870;28;20222;-60
2023/06/23 03:48:45;;;;;;;111.97;54.87;;;15.10;99.90;;;;;;5090459;28;20224;-60
2023/06/23 03:51:16;;;;;;;110.70;54.10;;;15.10;99.90;;;;;;5085612;28;20200;-60
2023/06/23 03:53:49;;;;;;;96.33;51.30;;;15.10;99.90;;;;;;5077268;28;20248;-60
2023/06/23 03:56:19;;;;;;;109.50;54.90;;;15.10;99.90;;;;;;5094618;28;20241;-60
2023/06/23 03:58:49;;;;;;;107.13;52.40;;;15.20;99.90;;;;;;5088310;28;20211;-60
2023/06/23 04:01:19;;;;;;;113.33;54.57;;;15.20;99.90;;;;;;5093649;28;20712;-60
2023/06/23 04:03:55;;;;;;;107.00;55.43;;;15.20;99.90;;;;;;5093189;28;20602;-60
2023/06/23 04:06:27;;;;;;;102.53;51.73;;;15.20;99.90;;;;;;5068066;28;20194;-59
2023/06/23 04:08:56;;;;;;;108.97;54.37;;;15.20;99.90;;;;;;5095681;28;20189;-59
2023/06/23 04:11:27;;;;;;;102.87;53.70;;;15.20;99.90;;;;;;5094412;28;20225;-59
2023/06/23 04:13:57;;;;;;;117.80;57.23;;;15.20;99.90;;;;;;5094413;28;20756;-60
2023/06/23 04:16:27;;;;;;;110.03;57.17;;;15.20;99.90;;;;;;5091738;28;20217;-59
2023/06/23 04:19:00;;;;;;;104.57;54.10;;;15.20;99.90;;;;;;5091648;28;20841;-59
2023/06/23 04:21:31;;;;;;;114.77;57.70;;;15.30;99.90;;;;;;5085271;28;20559;-59
2023/06/23 04:24:03;;;;;;;111.77;57.73;;;15.30;99.90;;;;;;5092521;28;20185;-59
2023/06/23 04:26:34;;;;;;;119.37;60.30;;;15.30;99.90;;;;;;5083193;28;20698;-60
2023/06/23 04:29:05;;;;;;;115.07;60.73;;;15.30;99.90;;;;;;5093161;28;20212;-59
2023/06/23 04:31:35;;;;;;;113.33;57.83;;;15.30;99.90;;;;;;5086396;28;20231;-59
2023/06/23 04:34:05;;;;;;;113.87;56.70;;;15.30;99.90;;;;;;5093769;28;20224;-60
2023/06/23 04:36:40;;;;;;;112.77;57.83;;;15.30;99.90;;;;;;5093894;28;20216;-59
2023/06/23 04:39:19;;;;;;;117.10;61.00;;;15.30;99.90;;;;;;5091933;28;20298;-60
2023/06/23 04:41:53;;;;;;;117.50;59.30;;;15.30;99.90;;;;;;5094104;28;20217;-59
2023/06/23 04:44:26;;;;;;;121.40;61.57;;;15.30;99.90;;;;;;5093573;28;20223;-59
2023/06/23 04:46:58;;;;;;;120.77;60.60;;;15.30;99.90;;;;;;5086495;28;20244;-59
2023/06/23 04:49:30;;;;;;;116.27;59.00;;;15.30;99.90;;;;;;5089856;28;20218;-59
2023/06/23 04:52:04;;;;;;;114.10;59.20;;;15.40;99.90;;;;;;5092216;28;20233;-59
2023/06/23 04:54:41;;;;;;;117.00;61.17;;;15.40;99.90;;;;;;5089760;28;20231;-59
2023/06/23 04:57:14;;;;;;;120.00;62.73;;;15.40;99.90;;;;;;5092692;28;20224;-60
2023/06/23 04:59:47;;;;;;;125.07;62.80;;;15.40;99.90;;;;;;5086297;28;20215;-59
2023/06/23 05:02:17;;;;;;;118.90;60.90;;;15.40;99.90;;;;;;5091947;28;20213;-59
2023/06/23 05:04:48;;;;;;;118.13;63.53;;;15.50;99.90;;;;;;5086659;28;20217;-59
2023/06/23 05:07:19;;;;;;;118.63;62.77;;;15.50;99.90;;;;;;5088195;28;20224;-59
2023/06/23 05:09:50;;;;;;;113.47;61.63;;;15.50;99.90;;;;;;5089446;28;20686;-59
2023/06/23 05:12:21;;;;;;;109.10;59.97;;;15.60;99.90;;;;;;5093290;28;20189;-59
2023/06/23 05:14:52;;;;;;;114.70;59.43;;;15.60;99.90;;;;;;5091837;28;20193;-59
2023/06/23 05:17:23;;;;;;;108.37;60.60;;;15.60;99.90;;;;;;5087697;28;20212;-59
2023/06/23 05:19:54;;;;;;;112.17;60.97;;;15.60;99.90;;;;;;5087775;28;20698;-59
2023/06/23 05:22:25;;;;;;;117.33;63.13;;;15.70;99.90;;;;;;5090022;28;20227;-59
2023/06/23 05:24:59;;;;;;;104.97;58.13;;;15.80;99.90;;;;;;5089237;28;20300;-59
2023/06/23 05:27:29;;;;;;;106.40;58.63;;;15.80;99.90;;;;;;5090289;28;20192;-59
2023/06/23 05:29:59;;;;;;;106.00;58.47;;;15.80;99.90;;;;;;5088825;28;20675;-59
2023/06/23 05:32:32;;;;;;;105.67;58.87;;;15.90;99.90;;;;;;5087031;28;20222;-59
2023/06/23 05:35:05;;;;;;;102.67;57.70;;;15.90;99.90;;;;;;5080707;28;20209;-59
2023/06/23 05:37:35;;;;;;;104.40;57.03;;;16.00;99.90;;;;;;5086965;28;20207;-59
2023/06/23 05:40:06;;;;;;;95.17;54.97;;;16.00;99.90;;;;;;5089536;28;20228;-59
2023/06/23 05:42:34;;;;;;;91.97;55.47;;;16.10;99.90;;;;;;5079904;28;20312;-58
2023/06/23 05:45:03;;;;;;;86.60;52.83;;;16.10;99.90;;;;;;5091316;28;20183;-59
2023/06/23 05:47:37;;;;;;;87.80;53.03;;;16.20;99.90;;;;;;5089657;28;20984;-59
2023/06/23 05:50:15;;;;;;;97.67;52.80;;;16.20;99.90;;;;;;5086009;28;20725;-59
2023/06/23 05:52:54;;;;;;;90.27;54.60;;;16.20;99.90;;;;;;5087516;28;20221;-59
2023/06/23 05:55:24;;;;;;;82.07;50.67;;;16.30;99.90;;;;;;5089398;28;20227;-59
2023/06/23 05:57:59;;;;;;;84.27;51.03;;;16.40;99.90;;;;;;5089063;28;20218;-59
2023/06/23 06:00:33;;;;;;;81.33;51.60;;;16.50;99.90;;;;;;5089405;28;20209;-59
2023/06/23 06:03:04;;;;;;;83.00;50.60;;;16.50;99.90;;;;;;5086990;28;20638;-59
2023/06/23 06:05:35;;;;;;;80.33;50.57;;;16.60;99.90;;;;;;5088490;28;20223;-59
2023/06/23 06:08:06;;;;;;;73.63;47.77;;;16.60;99.90;;;;;;5086975;28;20214;-59
2023/06/23 06:10:37;;;;;;;75.40;47.67;;;16.70;99.90;;;;;;5088628;28;20586;-59
2023/06/23 06:13:07;;;;;;;73.60;46.27;;;16.80;99.90;;;;;;5086678;28;20229;-59
2023/06/23 06:15:36;;;;;;;75.03;46.57;;;16.80;99.90;;;;;;5090796;28;20252;-59
2023/06/23 06:18:07;;;;;;;71.23;46.43;;;16.90;99.90;;;;;;5090353;28;20188;-60
2023/06/23 06:20:39;;;;;;;66.30;41.67;;;17.00;99.90;;;;;;5068935;28;21207;-59
2023/06/23 06:23:09;;;;;;;61.60;39.83;;;17.20;99.90;;;;;;5071207;28;20542;-59
2023/06/23 06:25:55;;;;;;;55.50;38.43;;;17.20;99.90;;;;;;5067723;28;20738;-60
2023/06/23 06:28:26;;;;;;;56.57;36.73;;;17.40;99.90;;;;;;5091489;28;20269;-59
2023/06/23 06:30:58;;;;;;;53.47;36.47;;;17.50;99.90;;;;;;5090403;28;20235;-59
2023/06/23 06:33:28;;;;;;;45.47;32.37;;;17.60;99.90;;;;;;5088043;28;20211;-59
2023/06/23 06:36:03;;;;;;;47.87;33.00;;;17.70;99.90;;;;;;5089484;28;20198;-59
2023/06/23 06:38:35;;;;;;;46.87;33.37;;;17.80;99.90;;;;;;5090307;28;20227;-60
2023/06/23 06:41:06;;;;;;;43.23;31.20;;;17.90;99.90;;;;;;5088223;28;20255;-59
2023/06/23 06:43:34;;;;;;;42.30;29.60;;;18.10;99.90;;;;;;5090441;28;20222;-59
2023/06/23 06:46:04;;;;;;;38.27;27.87;;;18.20;99.90;;;;;;5091392;28;20243;-59
2023/06/23 06:48:34;;;;;;;36.30;27.03;;;18.40;99.90;;;;;;5091902;28;20250;-59
2023/06/23 06:51:05;;;;;;;33.63;25.20;;;18.40;99.90;;;;;;5091719;28;20187;-59
2023/06/23 06:53:34;;;;;;;32.80;23.63;;;18.50;99.90;;;;;;5091501;28;20223;-59
2023/06/23 06:56:02;;;;;;;29.37;21.67;;;18.70;99.90;;;;;;5082835;28;20589;-59
2023/06/23 06:58:31;;;;;;;29.27;22.37;;;18.70;99.90;;;;;;5087308;28;20207;-59
2023/06/23 07:01:00;;;;;;;31.07;21.73;;;18.80;99.90;;;;;;5088800;28;20683;-59
2023/06/23 07:03:28;;;;;;;24.23;17.47;;;18.90;99.90;;;;;;5091067;28;20278;-59
2023/06/23 07:05:57;;;;;;;28.37;19.43;;;19.00;99.90;;;;;;5081316;28;20631;-59
2023/06/23 07:08:27;;;;;;;23.33;17.90;;;19.20;99.90;;;;;;5091052;28;20294;-59
2023/06/23 07:10:55;;;;;;;25.27;19.57;;;19.40;98.70;;;;;;5081541;28;20230;-59
2023/06/23 07:13:23;;;;;;;27.87;19.50;;;19.50;93.50;;;;;;5090651;28;20661;-59
2023/06/23 07:15:52;;;;;;;22.10;17.73;;;19.50;97.60;;;;;;5071937;28;20311;-59
2023/06/23 07:18:23;;;;;;;23.20;16.40;;;19.60;94.10;;;;;;5073186;28;20191;-59
2023/06/23 07:20:52;;;;;;;24.40;16.53;;;19.70;93.10;;;;;;5094449;28;20194;-59
2023/06/23 07:23:20;;;;;;;21.17;17.27;;;19.80;90.50;;;;;;5095154;28;20222;-59
2023/06/23 07:25:50;;;;;;;20.90;15.10;;;19.90;80.30;;;;;;5082122;28;20215;-59
2023/06/23 07:28:20;;;;;;;20.17;14.33;;;20.10;91.70;;;;;;5093569;28;20215;-59
2023/06/23 07:30:48;;;;;;;16.97;13.83;;;20.10;85.20;;;;;;5089357;28;20716;-59
2023/06/23 07:33:16;;;;;;;20.00;14.40;;;20.30;63.40;;;;;;5092781;28;20191;-58
2023/06/23 07:35:45;;;;;;;17.07;12.00;;;20.50;87.30;;;;;;5091660;28;20211;-59
2023/06/23 07:38:13;;;;;;;14.07;11.43;;;20.60;75.20;;;;;;5093914;28;20223;-59
2023/06/23 07:40:41;;;;;;;15.27;12.50;;;20.60;37.00;;;;;;5094067;28;20247;-58
2023/06/23 07:43:12;;;;;;;11.53;10.27;;;20.70;29.00;;;;;;5088328;28;20223;-58
2023/06/23 07:45:40;;;;;;;9.77;8.77;;;20.70;11.20;;;;;;5094019;28;20226;-59
2023/06/23 07:48:08;;;;;;;9.43;8.17;;;20.70;9.40;;;;;;5087691;28;20188;-58
2023/06/23 07:50:37;;;;;;;10.90;8.53;;;20.80;4.20;;;;;;5093611;28;20264;-58
2023/06/23 07:53:05;;;;;;;12.13;9.93;;;20.80;1.00;;;;;;5098500;28;20577;-59
2023/06/23 07:55:33;;;;;;;9.70;8.70;;;20.90;6.20;;;;;;5093808;28;20218;-59
2023/06/23 07:58:02;;;;;;;10.43;9.10;;;21.00;6.40;;;;;;5086393;28;20211;-59
2023/06/23 08:00:31;;;;;;;12.43;9.23;;;21.00;5.60;;;;;;5087404;28;20548;-59
2023/06/23 08:03:01;;;;;;;10.67;9.30;;;21.10;1.00;;;;;;5083402;28;20191;-59
2023/06/23 08:05:29;;;;;;;9.70;8.37;;;21.10;1.00;;;;;;5094389;28;20215;-59
2023/06/23 08:07:58;;;;;;;8.60;7.60;;;21.40;1.00;;;;;;5089237;28;20302;-59
2023/06/23 08:10:26;;;;;;;8.80;7.90;;;21.50;1.00;;;;;;5094008;28;20216;-59
2023/06/23 08:12:54;;;;;;;11.23;9.47;;;21.60;1.00;;;;;;5071380;28;20222;-58
2023/06/23 08:15:23;;;;;;;10.27;8.00;;;21.80;1.00;;;;;;5093864;28;20212;-59
2023/06/23 08:17:54;;;;;;;9.03;8.13;;;21.80;1.00;;;;;;5084234;28;20205;-59
2023/06/23 08:20:23;;;;;;;9.40;8.47;;;21.90;1.00;;;;;;5092563;28;20235;-59
2023/06/23 08:22:52;;;;;;;10.30;9.17;;;22.10;1.00;;;;;;5086837;28;20223;-58
2023/06/23 08:25:20;;;;;;;8.13;7.40;;;22.30;1.00;;;;;;5090218;28;20224;-59
2023/06/23 08:27:48;;;;;;;11.23;9.67;;;22.30;1.00;;;;;;5086228;28;20217;-59
2023/06/23 08:30:25;;;;;;;9.97;8.73;;;22.30;1.00;;;;;;5087862;28;20190;-59
2023/06/23 08:32:55;;;;;;;8.77;7.90;;;22.40;1.00;;;;;;5090049;28;20258;-58
2023/06/23 08:35:24;;;;;;;8.63;7.73;;;22.40;1.00;;;;;;5091605;28;20221;-59
2023/06/23 08:37:52;;;;;;;11.13;8.43;;;22.50;1.00;;;;;;5088186;28;20221;-58
2023/06/23 08:40:21;;;;;;;11.40;7.17;;;22.70;1.00;;;;;;5091265;28;20588;-58
2023/06/23 08:42:50;;;;;;;8.77;7.00;;;22.80;1.00;;;;;;5074994;28;20594;-59
2023/06/23 08:45:19;;;;;;;10.07;8.57;;;22.90;1.00;;;;;;5088154;28;20194;-59
2023/06/23 08:47:51;;;;;;;9.90;7.60;;;23.00;1.00;;;;;;5087967;28;20197;-59
2023/06/23 08:50:22;;;;;;;9.20;8.33;;;23.10;1.00;;;;;;5093170;28;20260;-59
2023/06/23 08:52:50;;;;;;;9.20;8.30;;;23.10;1.00;;;;;;5092036;28;20227;-59
2023/06/23 08:55:19;;;;;;;9.37;8.47;;;23.20;1.00;;;;;;5087286;28;20232;-59
2023/06/23 08:57:48;;;;;;;9.20;7.30;;;23.30;1.00;;;;;;5087257;28;20307;-59
2023/06/23 09:00:21;;;;;;;7.57;6.87;;;23.30;1.00;;;;;;5087288;28;20241;-59
2023/06/23 09:02:50;;;;;;;8.87;7.57;;;23.50;1.00;;;;;;5093766;28;20289;-59
2023/06/23 09:05:18;;;;;;;8.50;7.60;;;23.60;1.00;;;;;;5087657;28;20211;-59
2023/06/23 09:07:49;;;;;;;8.93;8.03;;;23.80;1.00;;;;;;5085679;28;20228;-59
2023/06/23 09:10:18;;;;;;;9.77;8.07;;;23.90;1.00;;;;;;5088312;28;20318;-59
2023/06/23 09:13:17;;;;;;;10.07;7.90;;;24.00;1.00;;;;;;5087255;28;20222;-59
2023/06/23 09:15:47;;;;;;;7.53;6.40;;;24.30;1.00;;;;;;5090247;28;20226;-59
2023/06/23 09:18:31;;;;;;;8.37;7.40;;;24.30;1.00;;;;;;5084198;28;20245;-59
2023/06/23 09:21:02;;;;;;;8.97;7.07;;;24.30;1.00;;;;;;5092661;28;20534;-59
2023/06/23 09:23:33;;;;;;;9.03;6.67;;;24.30;1.00;;;;;;5091698;28;20227;-59
2023/06/23 09:26:03;;;;;;;7.03;6.43;;;24.40;1.00;;;;;;5083643;28;20294;-59
2023/06/23 09:28:35;;;;;;;7.50;6.80;;;24.50;1.00;;;;;;5068606;28;20238;-59
2023/06/23 09:31:11;;;;;;;7.13;6.13;;;24.70;1.00;;;;;;5093053;28;20219;-59
2023/06/23 09:33:47;;;;;;;13.03;5.93;;;24.80;1.00;;;;;;5082847;28;20243;-59
2023/06/23 09:36:16;;;;;;;6.50;5.97;;;25.00;99.90;;;;;;5084617;28;21147;-59
2023/06/23 09:38:48;;;;;;;6.87;6.27;;;25.00;1.00;;;;;;5088882;28;20626;-59
2023/06/23 09:41:18;;;;;;;6.60;5.97;;;25.20;1.00;;;;;;5091463;28;20230;-59
2023/06/23 09:43:50;;;;;;;5.90;5.40;;;25.20;99.90;;;;;;5066716;28;20230;-60
2023/06/23 09:46:20;;;;;;;6.00;5.25;;;25.20;1.00;;;;;;5086242;28;20212;-59
2023/06/23 09:48:50;;;;;;;5.90;4.70;;;25.30;1.00;;;;;;5092229;28;20216;-59
2023/06/23 09:51:19;;;;;;;5.35;4.82;;;25.60;1.00;;;;;;5078152;28;20196;-59
2023/06/23 09:53:49;;;;;;;6.00;4.82;;;25.60;99.90;;;;;;5091604;28;20319;-60
2023/06/23 09:56:19;;;;;;;5.80;5.30;;;25.90;99.90;;;;;;5083747;28;20220;-59
2023/06/23 09:58:49;;;;;;;5.18;4.70;;;25.80;99.90;;;;;;5092799;28;20250;-59
2023/06/23 10:01:20;;;;;;;5.10;4.60;;;25.70;99.90;;;;;;5087313;28;20236;-59
2023/06/23 10:03:51;;;;;;;4.90;4.50;;;25.70;99.90;;;;;;5084519;28;20228;-59
2023/06/23 10:06:24;;;;;;;5.97;4.93;;;25.90;99.90;;;;;;5091101;28;20190;-59
2023/06/23 10:08:58;;;;;;;5.95;4.20;;;26.10;1.00;;;;;;5091523;28;20187;-59
2023/06/23 10:11:31;;;;;;;8.20;5.43;;;26.20;1.00;;;;;;5087062;28;20228;-59
2023/06/23 10:14:05;;;;;;;5.55;5.05;;;26.20;1.00;;;;;;5090118;28;20320;-59
2023/06/23 10:16:35;;;;;;;5.18;4.40;;;26.30;1.00;;;;;;5091386;28;20223;-59
2023/06/23 10:19:05;;;;;;;6.57;4.67;;;26.40;1.00;;;;;;5086906;28;20273;-59
2023/06/23 10:21:34;;;;;;;7.22;4.75;;;26.40;1.00;;;;;;5081072;28;20224;-59
2023/06/23 10:24:06;;;;;;;6.80;5.40;;;26.50;18.50;;;;;;5090202;28;20196;-58
2023/06/23 10:26:36;;;;;;;7.57;6.40;;;26.50;1.00;;;;;;5088242;28;20210;-58
2023/06/23 10:29:07;;;;;;;5.72;5.30;;;26.20;1.00;;;;;;5090735;28;20248;-59
2023/06/23 10:31:38;;;;;;;6.63;5.93;;;26.00;1.00;;;;;;5091780;28;20227;-59
2023/06/23 10:34:09;;;;;;;7.70;6.10;;;25.90;1.00;;;;;;5091557;28;20223;-59
2023/06/23 10:36:40;;;;;;;6.03;5.53;;;26.00;1.00;;;;;;5092243;28;20614;-59
2023/06/23 10:39:11;;;;;;;8.80;6.30;;;26.20;1.00;;;;;;5087181;28;20716;-58
2023/06/23 10:41:41;;;;;;;10.53;6.43;;;26.20;1.00;;;;;;5090546;28;20273;-58
2023/06/23 10:44:10;;;;;;;6.28;5.78;;;26.30;1.00;;;;;;5089273;28;20312;-56
2023/06/23 10:46:40;;;;;;;8.95;5.80;;;26.40;99.90;;;;;;5089741;28;20346;-57
2023/06/23 10:49:09;;;;;;;8.93;8.02;;;26.60;47.50;;;;;;5088732;28;20213;-57
2023/06/23 10:51:38;;;;;;;9.18;8.05;;;26.90;1.00;;;;;;5082056;28;20229;-57
2023/06/23 10:54:10;;;;;;;9.05;7.28;;;26.90;1.00;;;;;;5088284;28;20541;-57
2023/06/23 10:56:43;;;;;;;8.02;7.22;;;26.80;1.00;;;;;;5087968;28;20233;-57
2023/06/23 10:59:22;;;;;;;9.07;7.47;;;26.70;99.90;;;;;;5092032;28;20223;-56
2023/06/23 11:02:24;;;;;;;10.48;7.25;;;26.90;1.00;;;;;;5084979;28;20310;-57
2023/06/23 11:04:56;;;;;;;7.97;6.90;;;26.90;99.90;;;;;;5000721;28;20229;-57
2023/06/23 11:07:25;;;;;;;8.10;7.22;;;26.70;41.10;;;;;;5004149;28;20251;-57
2023/06/23 11:10:06;;;;;;;13.38;9.35;;;26.50;99.90;;;;;;5046922;28;20213;-57
2023/06/23 11:12:43;;;;;;;8.45;7.65;;;26.20;99.90;;;;;;5086768;28;20629;-57
2023/06/23 11:15:15;;;;;;;10.70;8.02;;;26.00;1.00;;;;;;5087579;28;20194;-55
2023/06/23 11:17:46;;;;;;;11.68;9.23;;;26.00;1.00;;;;;;5090710;28;20224;-57
2023/06/23 11:20:28;;;;;;;11.57;7.93;;;26.20;99.90;;;;;;5091273;28;20251;-57
2023/06/23 11:23:00;;;;;;;14.38;9.20;;;26.40;99.90;;;;;;5089423;28;20674;-56
2023/06/23 11:25:30;;;;;;;9.65;8.18;;;26.60;1.00;;;;;;5090172;28;20220;-56
2023/06/23 11:28:29;;;;;;;11.88;8.68;;;26.70;99.90;;;;;;5089191;28;21107;-57
2023/06/23 11:31:07;;;;;;;9.13;7.65;;;26.60;99.90;;;;;;5089193;28;20295;-57
2023/06/23 11:33:37;;;;;;;8.50;7.70;;;26.50;99.90;;;;;;5089815;28;20265;-57
2023/06/23 11:36:07;;;;;;;11.43;8.67;;;26.20;99.90;;;;;;5089690;28;20546;-57
2023/06/23 11:38:37;;;;;;;13.95;8.13;;;26.20;28.10;;;;;;5069266;28;20216;-57
2023/06/23 11:41:05;;;;;;;9.10;8.20;;;26.30;1.00;;;;;;5086728;28;20597;-57
2023/06/23 11:43:38;;;;;;;8.87;8.03;;;26.40;1.00;;;;;;5089844;28;20230;-56
2023/06/23 11:46:10;;;;;;;13.10;8.47;;;26.80;99.90;;;;;;5088330;28;20241;-57
2023/06/23 11:48:40;;;;;;;11.65;9.93;;;26.90;1.00;;;;;;5088288;28;20221;-57
2023/06/23 11:51:10;;;;;;;11.32;8.52;;;26.90;1.00;;;;;;5085395;28;20186;-57
2023/06/23 11:53:40;;;;;;;10.27;8.38;;;27.10;99.90;;;;;;5088655;28;20240;-57
2023/06/23 11:56:09;;;;;;;13.07;8.50;;;27.20;84.10;;;;;;5068037;28;20312;-57
2023/06/23 11:58:39;;;;;;;8.93;8.07;;;27.20;1.00;;;;;;5090952;28;20682;-57
2023/06/23 12:01:09;;;;;;;12.25;7.10;;;27.20;1.00;;;;;;5086112;28;20212;-57
2023/06/23 12:03:38;;;;;;;8.25;7.38;;;27.30;99.90;;;;;;5089977;28;20259;-56
2023/06/23 12:06:13;;;;;;;9.27;7.43;;;27.20;42.10;;;;;;5088532;28;20213;-57
2023/06/23 12:08:41;;;;;;;10.25;7.43;;;27.30;1.00;;;;;;5090876;28;20679;-57
2023/06/23 12:11:10;;;;;;;8.98;8.05;;;27.40;99.90;;;;;;5091546;28;20234;-57
2023/06/23 12:13:40;;;;;;;11.68;9.18;;;27.50;99.90;;;;;;5090451;28;20217;-58
2023/06/23 12:16:08;;;;;;;10.55;8.18;;;27.50;99.90;;;;;;5093081;28;20328;-57
2023/06/23 12:18:44;;;;;;;11.23;7.90;;;27.50;1.00;;;;;;5087660;28;20723;-57
2023/06/23 12:21:15;;;;;;;9.65;7.30;;;27.50;99.90;;;;;;5086468;28;20570;-58
2023/06/23 12:23:43;;;;;;;8.55;7.30;;;27.70;1.00;;;;;;5086052;28;20564;-57
2023/06/23 12:26:15;;;;;;;8.48;7.10;;;27.50;99.90;;;;;;5087116;28;20224;-57
2023/06/23 12:28:45;;;;;;;8.07;6.88;;;27.30;99.90;;;;;;5085254;28;20222;-60
2023/06/23 12:31:13;;;;;;;8.00;6.07;;;27.50;99.90;;;;;;5090720;28;20221;-57
2023/06/23 12:33:42;;;;;;;8.25;6.43;;;27.40;1.00;;;;;;5071272;28;20317;-57
2023/06/23 12:36:16;;;;;;;15.52;7.22;;;27.50;1.00;;;;;;5092780;28;20503;-57
2023/06/23 12:38:46;;;;;;;8.48;6.10;;;27.70;99.90;;;;;;5088960;28;20220;-59
2023/06/23 12:41:15;;;;;;;6.60;6.00;;;27.80;1.00;;;;;;5089564;28;20230;-58
2023/06/23 12:43:45;;;;;;;7.47;5.85;;;27.80;1.00;;;;;;5089015;28;20224;-58
2023/06/23 12:46:15;;;;;;;6.57;5.93;;;28.00;1.00;;;;;;5089142;28;20248;-58
2023/06/23 12:48:44;;;;;;;8.52;6.05;;;28.00;99.90;;;;;;5088847;28;20241;-58
2023/06/23 12:51:13;;;;;;;11.07;6.20;;;28.00;99.90;;;;;;5087196;28;20667;-58
2023/06/23 12:53:42;;;;;;;7.70;6.90;;;28.00;99.90;;;;;;5088619;28;20232;-58
2023/06/23 12:56:11;;;;;;;8.48;6.93;;;27.90;1.00;;;;;;5091889;28;20226;-58